createdAt,value
2019-03-17T15:49:06.849Z,24.69
2019-03-17T15:54:08.880Z,25.45
2019-03-17T15:59:10.776Z,25.73
2019-03-17T16:04:12.447Z,26.31
2019-03-17T16:09:14.018Z,26.70
2019-03-17T16:14:15.984Z,25.29
2019-03-17T16:19:19.513Z,25.43
2019-03-17T16:24:23.056Z,25.56
2019-03-17T16:29:26.194Z,26.72
2019-03-17T16:34:27.742Z,26.64
2019-03-17T16:39:30.500Z,26.75
2019-03-17T16:44:34.321Z,26.08
2019-03-17T16:49:36.202Z,25.89
2019-03-17T16:54:39.478Z,24.14
2019-03-17T16:59:44.865Z,25.75
2019-03-17T17:04:46.479Z,24.93
2019-03-17T17:09:48.913Z,25.89
2019-03-17T17:14:53.995Z,25.37
2019-03-17T17:19:57.003Z,24.49
2019-03-17T17:24:58.932Z,25.33
2019-03-17T17:30:00.814Z,25.64
2019-03-17T17:35:06.282Z,26.01
2019-03-17T17:40:21.336Z,26.08
2019-03-17T17:45:24.412Z,25.97
2019-03-17T17:50:28.736Z,26.54
2019-03-17T17:55:30.428Z,26.16
2019-03-17T18:00:36.550Z,26.74
2019-03-17T18:05:38.441Z,26.92
2019-03-17T18:10:40.049Z,27.37
2019-03-17T18:15:41.612Z,26.63
2019-03-17T18:20:43.206Z,27.42
2019-03-17T18:25:44.746Z,27.50
2019-03-17T18:30:46.347Z,27.72
2019-03-17T18:35:47.936Z,28.41
2019-03-17T18:40:49.482Z,30.17
2019-03-17T18:45:51.083Z,31.16
2019-03-17T18:50:54.207Z,32.48
2019-03-17T18:55:57.835Z,33.63
2019-03-17T19:01:01.506Z,33.58
2019-03-17T19:06:04.099Z,33.81
2019-03-17T19:11:07.761Z,33.88
2019-03-17T19:16:11.760Z,34.48
2019-03-17T19:21:15.542Z,35.53
2019-03-17T19:26:17.114Z,37.50
2019-03-17T19:31:21.765Z,37.89
2019-03-17T19:36:23.424Z,38.74
2019-03-17T19:41:27.756Z,39.54
2019-03-17T19:46:29.696Z,40.29
2019-03-17T19:51:32.538Z,40.62
2019-03-17T19:56:37.220Z,41.48
2019-03-17T20:01:40.728Z,42.05
2019-03-17T20:06:43.792Z,42.19
2019-03-17T20:11:47.261Z,42.06
2019-03-17T20:16:50.019Z,42.69
2019-03-17T20:21:52.528Z,42.73
2019-03-17T20:26:56.996Z,42.76
2019-03-17T20:31:59.813Z,43.43
2019-03-17T20:37:03.606Z,43.57
2019-03-17T20:42:05.277Z,43.93
2019-03-17T20:47:08.786Z,44.66
2019-03-17T20:52:12.114Z,44.92
2019-03-17T20:57:13.835Z,45.02
2019-03-17T21:02:17.294Z,45.24
2019-03-17T21:07:21.479Z,45.16
2019-03-17T21:12:24.227Z,44.71
2019-03-17T21:17:27.978Z,45.26
2019-03-17T21:22:29.553Z,45.61
2019-03-17T21:27:32.410Z,45.55
2019-03-17T21:32:35.611Z,45.51
2019-03-17T21:37:38.704Z,45.76
2019-03-17T21:42:40.650Z,46.15
2019-03-17T21:47:42.531Z,46.28
2019-03-17T21:52:47.101Z,46.89
2019-03-17T21:57:50.701Z,46.71
2019-03-17T22:02:55.139Z,47.19
2019-03-17T22:07:57.069Z,47.30
2019-03-17T22:12:58.632Z,47.59
2019-03-17T22:18:00.994Z,47.61
2019-03-17T22:23:03.720Z,47.65
2019-03-17T22:28:08.688Z,47.59
2019-03-17T22:33:08.877Z,48.25
2019-03-17T22:38:12.060Z,47.97
2019-03-17T22:43:13.715Z,48.25
2019-03-17T22:48:15.323Z,48.71
2019-03-17T22:53:17.057Z,49.59
2019-03-17T22:58:18.755Z,50.77
2019-03-17T23:03:20.352Z,48.06
2019-03-17T23:08:21.893Z,47.98
2019-03-17T23:13:23.619Z,50.78
2019-03-17T23:18:25.209Z,52.44
2019-03-17T23:23:26.750Z,54.63
2019-03-17T23:28:28.306Z,57.15
2019-03-17T23:33:29.859Z,58.26
2019-03-17T23:38:31.489Z,59.14
2019-03-17T23:43:33.101Z,58.80
2019-03-17T23:48:34.657Z,58.42
2019-03-17T23:53:36.279Z,57.72
2019-03-17T23:58:37.931Z,56.19
